Pittsburg, Illinois
Current Conditions -  °F | °C
As of 9:30 PM on Monday 22 Dec 2014 (Local Time) from KMWA Reporting Station
Drizzle Drizzle  
Wind Chill: 52°   Ceiling: 800
Heat Index: 52°   Visibility: 7mi
Dew Point: 52°   Wind: 9mph
Humidity: 100%   Direction: 180°S
Pressure: 29.61"   Gusts: NA
Location:  37.78°N, 88.85°W
Report Text: KMWA 230330Z AUTO 18008KT 7SM -DZ OVC008 11/11 A2961 RMK AO2 P0001
Loading
Personal Weather Stations






























Interactive Weather Map New forecast layout! Learn more

10-Day Weather Forecast

Advertisements
Track Severe Weather on mobile